Time;durP1;ratioP1;P1;durP2;ratioP2;P2;SDS_P1;SDS_P2;PMS_P1;PMS_P2;Temp;Humidity;BMP_temperature;BMP_pressure;BME280_temperature;BME280_humidity;BME280_pressure;Samples;Min_cycle;Max_cycle;Signal;HPM_P1;HPM_P2
2022/11/15 00:00:33;;;;;;;21.58;15.00;;;6.50;99.90;;;;;;5043713;28;20480;-74
2022/11/15 00:02:59;;;;;;;24.85;15.45;;;6.50;99.90;;;;;;5060128;28;20048;-74
2022/11/15 00:05:25;;;;;;;23.77;15.73;;;6.50;99.90;;;;;;5041188;28;20132;-74
2022/11/15 00:07:51;;;;;;;25.17;15.93;;;6.50;99.90;;;;;;5023059;28;20041;-73
2022/11/15 00:10:17;;;;;;;26.67;15.40;;;6.60;99.90;;;;;;5046725;28;20041;-73
2022/11/15 00:12:42;;;;;;;26.47;16.10;;;6.60;99.90;;;;;;5046494;28;20093;-73
2022/11/15 00:15:08;;;;;;;25.30;16.03;;;6.60;99.90;;;;;;5036375;28;20484;-73
2022/11/15 00:17:34;;;;;;;24.17;15.57;;;6.60;99.90;;;;;;5058080;28;20044;-73
2022/11/15 00:20:00;;;;;;;25.57;15.90;;;6.70;99.90;;;;;;5030778;28;20270;-73
2022/11/15 00:22:31;;;;;;;25.67;16.63;;;6.70;99.90;;;;;;5024943;28;20101;-73
2022/11/15 00:24:57;;;;;;;26.73;16.20;;;6.70;99.90;;;;;;5043222;28;20075;-73
2022/11/15 00:27:23;;;;;;;26.73;16.00;;;6.70;99.90;;;;;;5057382;28;20433;-73
2022/11/15 00:29:48;;;;;;;26.53;16.70;;;6.70;99.90;;;;;;5047961;28;20054;-73
2022/11/15 00:32:14;;;;;;;26.50;17.00;;;6.70;99.90;;;;;;5037238;28;20048;-73
2022/11/15 00:34:40;;;;;;;26.43;17.03;;;6.80;99.90;;;;;;5042243;28;20408;-73
2022/11/15 00:37:06;;;;;;;26.13;16.77;;;6.80;99.90;;;;;;5035671;28;20044;-74
2022/11/15 00:39:32;;;;;;;26.35;16.58;;;6.70;99.90;;;;;;5060014;28;20040;-73
2022/11/15 00:41:58;;;;;;;26.00;17.17;;;6.80;99.90;;;;;;5051919;28;20064;-73
2022/11/15 00:44:23;;;;;;;26.03;16.77;;;6.70;99.90;;;;;;5037387;28;20056;-73
2022/11/15 00:46:49;;;;;;;27.37;16.70;;;6.70;99.90;;;;;;5045920;28;20105;-73
2022/11/15 00:49:15;;;;;;;27.77;17.37;;;6.70;99.90;;;;;;5025351;28;20110;-73
2022/11/15 00:51:40;;;;;;;23.80;15.80;;;6.70;99.90;;;;;;5046077;28;20060;-73
2022/11/15 00:54:06;;;;;;;26.90;16.97;;;6.70;99.90;;;;;;5027397;28;20101;-73
2022/11/15 00:56:32;;;;;;;26.27;16.93;;;6.70;99.90;;;;;;5030908;28;20407;-73
2022/11/15 00:58:58;;;;;;;26.63;17.50;;;6.60;99.90;;;;;;5039785;28;20124;-73
2022/11/15 01:01:23;;;;;;;27.47;17.20;;;6.60;99.90;;;;;;5047281;28;20051;-73
2022/11/15 01:03:49;;;;;;;26.33;16.97;;;6.60;99.90;;;;;;5022224;28;20036;-73
2022/11/15 01:06:15;;;;;;;27.37;17.60;;;6.60;99.90;;;;;;5045344;28;20519;-73
2022/11/15 01:08:41;;;;;;;32.43;18.40;;;6.60;99.90;;;;;;5036207;28;20102;-73
2022/11/15 01:11:10;;;;;;;26.63;17.03;;;6.60;99.90;;;;;;5044434;28;20044;-73
2022/11/15 01:13:36;;;;;;;30.25;17.73;;;6.60;99.90;;;;;;5042628;28;20050;-73
2022/11/15 01:16:08;;;;;;;30.02;18.67;;;6.60;99.90;;;;;;5037130;28;20447;-73
2022/11/15 01:18:34;;;;;;;31.08;18.92;;;6.60;99.90;;;;;;5052746;28;20492;-74
2022/11/15 01:21:03;;;;;;;33.40;20.40;;;6.50;99.90;;;;;;5030288;28;20047;-74
2022/11/15 01:23:29;;;;;;;36.60;20.90;;;6.50;99.90;;;;;;5059943;28;20575;-73
2022/11/15 01:26:00;;;;;;;34.17;20.80;;;6.50;99.90;;;;;;5046836;28;20049;-73
2022/11/15 01:28:28;;;;;;;34.40;21.63;;;6.40;99.90;;;;;;5053723;28;20049;-73
2022/11/15 01:30:58;;;;;;;36.83;21.33;;;6.40;99.90;;;;;;5056167;28;20456;-73
2022/11/15 01:33:24;;;;;;;35.28;22.17;;;6.40;99.90;;;;;;5047714;28;20496;-73
2022/11/15 01:35:49;;;;;;;34.30;20.70;;;6.30;99.90;;;;;;5024094;28;20044;-73
2022/11/15 01:38:15;;;;;;;35.50;20.80;;;6.30;99.90;;;;;;5031604;28;20033;-74
2022/11/15 01:40:41;;;;;;;36.07;22.33;;;6.20;99.90;;;;;;5057810;28;20556;-73
2022/11/15 01:43:39;;;;;;;37.77;22.13;;;6.20;99.90;;;;;;5022307;28;20048;-73
2022/11/15 01:46:28;;;;;;;34.55;21.33;;;6.20;99.90;;;;;;5054791;28;20044;-73
2022/11/15 01:48:57;;;;;;;34.22;19.52;;;6.10;99.90;;;;;;5062308;28;20572;-73
2022/11/15 01:51:27;;;;;;;36.38;19.45;;;6.10;99.90;;;;;;5021737;28;20048;-73
2022/11/15 01:53:57;;;;;;;34.90;19.33;;;6.10;99.90;;;;;;5044622;28;20036;-73
2022/11/15 01:56:27;;;;;;;34.00;19.58;;;6.00;99.90;;;;;;5033027;28;20385;-73
2022/11/15 01:58:55;;;;;;;35.25;20.38;;;6.00;99.90;;;;;;5054975;28;20086;-73
2022/11/15 02:01:22;;;;;;;34.88;20.02;;;5.90;99.90;;;;;;5080025;28;20076;-73
2022/11/15 02:04:10;;;;;;;37.35;21.63;;;5.90;99.90;;;;;;5045189;28;20072;-73
2022/11/15 02:06:36;;;;;;;35.53;19.77;;;5.90;99.90;;;;;;5046649;28;20502;-73
2022/11/15 02:09:02;;;;;;;33.88;20.45;;;5.80;99.90;;;;;;5059549;28;20067;-73
2022/11/15 02:11:29;;;;;;;37.30;19.92;;;5.80;99.90;;;;;;5041365;28;20136;-73
2022/11/15 02:13:57;;;;;;;33.95;19.58;;;5.80;99.90;;;;;;5060811;28;20045;-73
2022/11/15 02:16:57;;;;;;;37.70;20.55;;;5.80;99.90;;;;;;5033146;28;20052;-73
2022/11/15 02:19:32;;;;;;;38.63;21.58;;;5.80;99.90;;;;;;5069646;28;20552;-73
2022/11/15 02:22:07;;;;;;;34.97;19.42;;;5.80;99.90;;;;;;5063230;28;20369;-73
2022/11/15 02:24:57;;;;;;;37.63;21.17;;;5.80;99.90;;;;;;5055085;28;20044;-73
2022/11/15 02:27:35;;;;;;;36.20;20.48;;;5.80;99.90;;;;;;5056627;28;20519;-73
2022/11/15 02:30:12;;;;;;;38.70;20.08;;;5.80;99.90;;;;;;5057492;28;20479;-73
2022/11/15 02:33:06;;;;;;;37.42;20.23;;;5.80;99.90;;;;;;5068089;28;20343;-73
2022/11/15 02:35:38;;;;;;;33.53;19.55;;;5.90;99.90;;;;;;5055645;28;20056;-73
2022/11/15 02:38:16;;;;;;;34.05;19.48;;;5.80;99.90;;;;;;5059308;28;20088;-73
2022/11/15 02:40:46;;;;;;;36.65;20.60;;;5.90;99.90;;;;;;5072461;28;20044;-73
2022/11/15 02:46:20;;;;;;;41.08;20.88;;;5.90;99.90;;;;;;5059179;28;20052;-73
2022/11/15 02:48:47;;;;;;;43.10;22.40;;;5.90;99.90;;;;;;5064789;28;20295;-73
2022/11/15 02:51:14;;;;;;;44.95;22.65;;;5.90;99.90;;;;;;5048287;28;20036;-73
2022/11/15 02:53:40;;;;;;;47.10;21.45;;;5.90;99.90;;;;;;5052808;28;20049;-73
2022/11/15 02:56:11;;;;;;;46.20;22.17;;;6.00;99.90;;;;;;5064529;28;20048;-73
2022/11/15 02:59:16;;;;;;;46.50;22.67;;;6.00;99.90;;;;;;5059307;28;20397;-73
2022/11/15 03:01:41;;;;;;;43.85;23.38;;;6.00;99.90;;;;;;4975890;28;20112;-73
2022/11/15 03:04:33;;;;;;;53.47;24.17;;;6.00;99.90;;;;;;5030575;28;20554;-73
2022/11/15 03:07:08;;;;;;;54.97;23.65;;;6.00;99.90;;;;;;5042646;28;20375;-73
2022/11/15 03:10:06;;;;;;;43.83;21.75;;;6.00;99.90;;;;;;5062897;28;20069;-73
2022/11/15 03:12:54;;;;;;;52.88;23.17;;;6.00;99.90;;;;;;5057971;28;20048;-73
2022/11/15 03:15:34;;;;;;;56.00;23.20;;;6.00;99.90;;;;;;5053798;28;20312;-73
2022/11/15 03:18:15;;;;;;;55.13;23.15;;;6.00;99.90;;;;;;5057309;28;20043;-73
2022/11/15 03:20:43;;;;;;;57.70;24.33;;;6.00;99.90;;;;;;5058218;28;20052;-73
2022/11/15 03:23:10;;;;;;;53.60;22.80;;;6.00;99.90;;;;;;5057953;28;20080;-73
2022/11/15 03:25:42;;;;;;;59.33;24.60;;;6.10;99.90;;;;;;5038450;28;20123;-73
2022/11/15 03:28:12;;;;;;;68.88;26.35;;;6.10;99.90;;;;;;5059786;28;20551;-73
2022/11/15 03:30:39;;;;;;;66.25;24.95;;;6.10;99.90;;;;;;5057171;28;20393;-73
2022/11/15 03:33:06;;;;;;;67.22;25.25;;;6.10;99.90;;;;;;5049727;28;20086;-74
2022/11/15 03:35:40;;;;;;;58.33;24.98;;;6.10;99.90;;;;;;5029356;28;20501;-73
2022/11/15 03:38:14;;;;;;;65.72;25.42;;;6.10;99.90;;;;;;5060235;28;20560;-73
2022/11/15 03:40:47;;;;;;;60.85;23.90;;;6.20;99.90;;;;;;5041219;28;20531;-73
2022/11/15 03:43:38;;;;;;;62.50;24.95;;;6.20;99.90;;;;;;5064794;28;20480;-73
2022/11/15 03:46:30;;;;;;;57.17;23.13;;;6.20;99.90;;;;;;5054425;28;20378;-73
2022/11/15 03:49:09;;;;;;;65.22;25.10;;;6.20;99.90;;;;;;5056393;28;20048;-73
2022/11/15 03:51:35;;;;;;;66.75;25.55;;;6.30;99.90;;;;;;5039469;28;20044;-73
2022/11/15 03:54:06;;;;;;;61.40;25.70;;;6.30;99.90;;;;;;5040809;28;20409;-73
2022/11/15 03:56:32;;;;;;;69.28;26.25;;;6.30;99.90;;;;;;5055915;28;20049;-73
2022/11/15 03:58:57;;;;;;;68.70;25.60;;;6.30;99.90;;;;;;5048186;28;20044;-73
2022/11/15 04:01:23;;;;;;;66.37;26.70;;;6.30;99.90;;;;;;5046206;28;20160;-73
2022/11/15 04:03:49;;;;;;;63.60;26.47;;;6.30;99.90;;;;;;5039645;28;20083;-73
2022/11/15 04:06:14;;;;;;;58.83;25.23;;;6.40;99.90;;;;;;5030022;28;20044;-73
2022/11/15 04:08:40;;;;;;;69.57;25.97;;;6.40;99.90;;;;;;5060297;28;20105;-73
2022/11/15 04:11:06;;;;;;;56.13;23.83;;;6.40;99.90;;;;;;5056785;28;20036;-73
2022/11/15 04:13:32;;;;;;;61.90;24.37;;;6.40;99.90;;;;;;5060591;28;20499;-73
2022/11/15 04:15:57;;;;;;;55.93;24.03;;;6.40;99.90;;;;;;5040403;28;20400;-73
2022/11/15 04:18:24;;;;;;;55.67;24.17;;;6.40;99.90;;;;;;5047785;28;20043;-73
2022/11/15 04:26:21;;;;;;;53.63;22.40;;;6.50;99.90;;;;;;5043912;28;20041;-73
2022/11/15 04:31:32;;;;;;;54.40;22.05;;;6.60;99.90;;;;;;5050676;28;20037;-73
2022/11/15 04:33:58;;;;;;;56.33;23.50;;;6.60;99.90;;;;;;5037502;28;20041;-73
2022/11/15 04:39:08;;;;;;;51.40;22.15;;;6.70;99.90;;;;;;5060254;28;20049;-73
2022/11/15 04:41:34;;;;;;;54.43;23.03;;;6.70;99.90;;;;;;5039336;28;20048;-73
2022/11/15 04:43:59;;;;;;;59.70;22.80;;;6.80;99.90;;;;;;5037316;28;20389;-73
2022/11/15 04:46:26;;;;;;;61.13;24.07;;;6.80;99.90;;;;;;5043484;28;20048;-73
2022/11/15 04:48:52;;;;;;;69.75;27.60;;;6.80;99.90;;;;;;5040765;28;20055;-73
2022/11/15 04:51:18;;;;;;;70.57;24.50;;;6.90;99.90;;;;;;5038853;28;20048;-73
2022/11/15 04:53:44;;;;;;;78.40;26.20;;;6.90;99.90;;;;;;5038574;28;20044;-73
2022/11/15 04:56:10;;;;;;;61.47;24.97;;;7.00;99.90;;;;;;5045540;28;20574;-73
2022/11/15 04:58:36;;;;;;;72.63;25.65;;;7.00;99.90;;;;;;5030908;28;20435;-74
2022/11/15 05:01:11;;;;;;;81.67;26.93;;;7.00;99.90;;;;;;5044355;28;20051;-73
2022/11/15 05:06:22;;;;;;;79.40;28.27;;;7.10;99.90;;;;;;5066831;28;20483;-73
2022/11/15 05:08:47;;;;;;;83.63;28.90;;;7.20;99.90;;;;;;5042976;28;20055;-73
2022/11/15 05:11:13;;;;;;;82.93;27.33;;;7.20;99.90;;;;;;5044325;28;20049;-73
2022/11/15 05:13:39;;;;;;;87.37;27.60;;;7.30;99.90;;;;;;5042660;28;20047;-73
2022/11/15 05:16:04;;;;;;;78.33;27.97;;;7.30;99.90;;;;;;5027993;28;20046;-73
2022/11/15 05:18:30;;;;;;;84.63;27.97;;;7.40;99.90;;;;;;5042530;28;20036;-73
2022/11/15 05:21:02;;;;;;;84.13;27.23;;;7.40;99.90;;;;;;5061492;28;20047;-73
2022/11/15 05:23:28;;;;;;;80.03;30.80;;;7.40;99.90;;;;;;5052098;28;20306;-73
2022/11/15 05:25:59;;;;;;;89.43;28.83;;;7.50;99.90;;;;;;5043217;28;20041;-73
2022/11/15 05:28:25;;;;;;;83.70;28.77;;;7.50;99.90;;;;;;5043859;28;20505;-73
2022/11/15 05:30:50;;;;;;;84.50;29.77;;;7.60;99.90;;;;;;5031337;28;20185;-73
2022/11/15 05:33:16;;;;;;;87.83;29.70;;;7.60;99.90;;;;;;5030749;28;20040;-73
2022/11/15 05:35:48;;;;;;;93.30;30.75;;;7.70;99.90;;;;;;5018937;28;20033;-73
2022/11/15 05:38:14;;;;;;;101.43;31.30;;;7.80;99.90;;;;;;5052662;28;20044;-74
2022/11/15 05:40:40;;;;;;;78.85;29.13;;;7.80;99.90;;;;;;5030779;28;20408;-74
2022/11/15 05:43:06;;;;;;;86.73;29.30;;;7.80;99.90;;;;;;5038988;28;20057;-73
2022/11/15 05:45:33;;;;;;;79.13;29.80;;;7.90;99.90;;;;;;5040811;28;20552;-74
2022/11/15 05:48:03;;;;;;;95.80;32.50;;;7.90;99.90;;;;;;5028168;28;20064;-73
2022/11/15 05:50:29;;;;;;;100.85;31.05;;;7.90;99.90;;;;;;5032948;28;20041;-74
2022/11/15 05:52:55;;;;;;;77.37;29.50;;;8.00;99.90;;;;;;5031088;28;20055;-73
2022/11/15 05:55:21;;;;;;;88.65;32.13;;;8.00;99.90;;;;;;5036046;28;20331;-73
2022/11/15 05:57:47;;;;;;;77.43;28.80;;;8.10;99.90;;;;;;5047119;28;20524;-73
2022/11/15 06:00:13;;;;;;;87.83;29.87;;;8.10;99.90;;;;;;5045589;28;20037;-73
2022/11/15 06:02:39;;;;;;;76.20;27.57;;;8.10;99.90;;;;;;5039906;28;20064;-73
2022/11/15 06:05:05;;;;;;;81.70;30.30;;;8.10;99.90;;;;;;5045319;28;20229;-73
2022/11/15 06:07:30;;;;;;;71.70;28.67;;;8.20;99.90;;;;;;5046202;28;20044;-73
2022/11/15 06:09:56;;;;;;;76.00;28.67;;;8.20;99.90;;;;;;5047314;28;20044;-73
2022/11/15 06:12:22;;;;;;;85.60;30.83;;;8.30;99.90;;;;;;5042582;28;20037;-73
2022/11/15 06:14:47;;;;;;;77.33;30.47;;;8.30;99.90;;;;;;5057906;28;20048;-73
2022/11/15 06:17:13;;;;;;;78.70;30.00;;;8.30;99.90;;;;;;5066280;28;20044;-73
2022/11/15 06:19:39;;;;;;;74.60;29.50;;;8.40;99.90;;;;;;5066619;28;20119;-73
2022/11/15 06:22:05;;;;;;;79.87;30.93;;;8.40;99.90;;;;;;5063111;28;20048;-73
2022/11/15 06:24:30;;;;;;;81.77;30.77;;;8.40;99.90;;;;;;5024113;28;20098;-73
2022/11/15 06:26:57;;;;;;;79.53;29.87;;;8.40;99.90;;;;;;5045781;28;20128;-73
2022/11/15 06:29:23;;;;;;;75.32;29.58;;;8.50;99.90;;;;;;5025325;28;20045;-73
2022/11/15 06:31:49;;;;;;;83.90;31.37;;;8.50;99.90;;;;;;5042631;28;20043;-73
2022/11/15 06:34:14;;;;;;;84.00;31.30;;;8.50;99.90;;;;;;5044305;28;20076;-73
2022/11/15 06:36:40;;;;;;;88.00;32.57;;;8.50;99.90;;;;;;5042536;28;20055;-73
2022/11/15 06:39:06;;;;;;;97.47;33.27;;;8.60;99.90;;;;;;5036215;28;20152;-73
2022/11/15 06:41:35;;;;;;;85.63;32.20;;;8.60;99.90;;;;;;5048580;28;20552;-73
2022/11/15 06:44:01;;;;;;;78.50;31.60;;;8.60;99.90;;;;;;5019051;28;20167;-73
2022/11/15 06:46:26;;;;;;;95.37;34.73;;;8.60;99.90;;;;;;5040394;28;20040;-73
2022/11/15 06:48:53;;;;;;;83.83;32.83;;;8.70;99.90;;;;;;5019460;28;20815;-73
2022/11/15 06:51:19;;;;;;;93.70;34.13;;;8.70;99.90;;;;;;5056438;28;20341;-73
2022/11/15 06:53:45;;;;;;;92.50;34.55;;;8.70;99.90;;;;;;5032282;28;20446;-73
2022/11/15 06:56:11;;;;;;;95.40;34.17;;;8.80;99.90;;;;;;5058066;28;20044;-73
2022/11/15 06:58:37;;;;;;;96.33;34.03;;;8.80;99.90;;;;;;5019404;28;20041;-73
2022/11/15 07:01:08;;;;;;;96.57;34.10;;;8.80;99.90;;;;;;5064786;28;20048;-73
2022/11/15 07:03:36;;;;;;;106.97;36.08;;;8.90;99.90;;;;;;5060739;28;20044;-73
2022/11/15 07:06:01;;;;;;;99.35;38.33;;;8.90;99.90;;;;;;5041294;28;20040;-73
2022/11/15 07:08:29;;;;;;;87.70;35.03;;;8.90;99.90;;;;;;5027992;28;20801;-73
2022/11/15 07:10:59;;;;;;;94.95;34.83;;;9.00;99.90;;;;;;5061183;28;20683;-73
2022/11/15 07:13:26;;;;;;;98.10;35.20;;;9.00;99.90;;;;;;5044005;28;20361;-73
2022/11/15 07:15:52;;;;;;;92.00;33.47;;;9.00;99.90;;;;;;5035222;28;20051;-73
2022/11/15 07:18:18;;;;;;;86.80;34.53;;;9.00;99.90;;;;;;5026043;28;20038;-73
2022/11/15 07:20:43;;;;;;;85.03;34.20;;;9.10;99.90;;;;;;5058654;28;20110;-73
2022/11/15 07:23:09;;;;;;;87.83;32.97;;;9.10;99.90;;;;;;5045061;28;20040;-73
2022/11/15 07:25:35;;;;;;;78.33;32.77;;;9.10;99.90;;;;;;5037119;28;20401;-73
2022/11/15 07:28:02;;;;;;;70.50;31.83;;;9.10;99.90;;;;;;5018256;28;20036;-73
2022/11/15 07:30:28;;;;;;;75.63;32.72;;;9.10;99.90;;;;;;5038051;28;20126;-73
2022/11/15 07:32:59;;;;;;;72.43;31.38;;;9.20;99.90;;;;;;5017680;28;20152;-73
2022/11/15 07:35:26;;;;;;;66.65;32.67;;;9.20;99.90;;;;;;5046075;28;20055;-73
2022/11/15 07:38:00;;;;;;;72.55;30.92;;;9.30;99.90;;;;;;5043596;28;20040;-73
2022/11/15 07:40:28;;;;;;;70.43;31.23;;;9.30;99.90;;;;;;5055250;28;20127;-73
2022/11/15 07:43:07;;;;;;;65.18;30.85;;;9.30;99.90;;;;;;5058695;28;20060;-74
2022/11/15 07:45:34;;;;;;;67.18;30.85;;;9.30;99.90;;;;;;5025539;28;20055;-74
2022/11/15 07:48:00;;;;;;;65.57;29.87;;;9.30;99.90;;;;;;5054506;28;20127;-74
2022/11/15 07:50:26;;;;;;;66.15;31.70;;;9.40;99.90;;;;;;5065617;28;20306;-74
2022/11/15 07:52:56;;;;;;;58.03;29.90;;;9.40;99.90;;;;;;5043670;28;20436;-74
2022/11/15 07:55:23;;;;;;;61.03;30.40;;;9.40;99.90;;;;;;5046844;28;20287;-74
2022/11/15 07:57:49;;;;;;;56.55;29.13;;;9.50;99.90;;;;;;5063302;28;20036;-74
2022/11/15 08:00:15;;;;;;;56.40;28.43;;;9.50;99.90;;;;;;5048205;28;20056;-74
2022/11/15 08:02:41;;;;;;;58.90;28.65;;;9.60;99.90;;;;;;5030642;28;20313;-74
2022/11/15 08:05:07;;;;;;;50.30;26.87;;;9.60;99.90;;;;;;5058453;28;20045;-74
2022/11/15 08:07:33;;;;;;;48.33;26.73;;;9.60;99.90;;;;;;5027297;28;20333;-74
2022/11/15 08:10:00;;;;;;;51.10;26.80;;;9.70;99.90;;;;;;5017025;28;20037;-74
2022/11/15 08:12:28;;;;;;;51.50;27.47;;;9.70;99.90;;;;;;5026294;28;20344;-73
2022/11/15 08:14:56;;;;;;;45.80;26.23;;;9.70;99.90;;;;;;5046570;28;20287;-74
2022/11/15 08:17:22;;;;;;;51.40;27.10;;;9.70;99.90;;;;;;5063925;28;20286;-74
2022/11/15 08:19:48;;;;;;;51.90;26.57;;;9.80;99.90;;;;;;5040698;28;20282;-74
2022/11/15 08:22:14;;;;;;;47.77;25.83;;;9.80;99.90;;;;;;5040085;28;20279;-74
2022/11/15 08:24:40;;;;;;;44.83;26.20;;;9.90;99.90;;;;;;5049752;28;20497;-74
2022/11/15 08:27:14;;;;;;;43.97;25.47;;;9.90;99.90;;;;;;5039962;28;20052;-74
2022/11/15 08:29:44;;;;;;;47.22;25.77;;;10.00;99.90;;;;;;5059584;28;20048;-74
2022/11/15 08:32:10;;;;;;;43.93;25.90;;;10.10;99.90;;;;;;5038100;28;20484;-74
2022/11/15 08:34:37;;;;;;;46.53;25.73;;;10.20;99.90;;;;;;5038027;28;20275;-74
2022/11/15 08:37:03;;;;;;;48.70;25.80;;;10.20;99.90;;;;;;5024785;28;20275;-74
2022/11/15 08:39:29;;;;;;;46.90;25.33;;;10.20;99.90;;;;;;5040504;28;20276;-74
2022/11/15 08:41:55;;;;;;;42.97;26.03;;;10.20;99.90;;;;;;5040615;28;20377;-75
2022/11/15 08:44:20;;;;;;;41.90;24.43;;;10.20;99.90;;;;;;5023201;28;20140;-74
2022/11/15 08:46:52;;;;;;;41.97;24.53;;;10.20;99.90;;;;;;5054338;28;20063;-74
2022/11/15 08:49:18;;;;;;;42.73;25.17;;;10.20;99.90;;;;;;5008665;28;20279;-74
2022/11/15 08:51:44;;;;;;;43.57;25.17;;;10.30;99.90;;;;;;5045567;28;20041;-74
2022/11/15 08:54:09;;;;;;;39.27;24.50;;;10.30;99.90;;;;;;5053544;28;20570;-74
2022/11/15 08:56:35;;;;;;;41.73;23.97;;;10.30;99.90;;;;;;5031353;28;20043;-74
2022/11/15 08:59:01;;;;;;;43.53;24.67;;;10.40;99.90;;;;;;5038777;28;20412;-74
2022/11/15 09:01:26;;;;;;;37.80;23.40;;;10.40;99.90;;;;;;5026428;28;20416;-75
2022/11/15 09:03:52;;;;;;;40.30;24.27;;;10.50;99.90;;;;;;5041878;28;20055;-75
2022/11/15 09:06:18;;;;;;;37.13;22.73;;;10.50;99.90;;;;;;5026581;28;20059;-74
2022/11/15 09:08:44;;;;;;;42.30;22.27;;;10.50;99.90;;;;;;5037285;28;20082;-75
2022/11/15 09:11:10;;;;;;;36.53;22.50;;;10.50;99.90;;;;;;5026146;28;20087;-74
2022/11/15 09:13:36;;;;;;;38.30;22.47;;;10.50;99.90;;;;;;5039950;28;20040;-75
2022/11/15 09:16:08;;;;;;;39.63;22.77;;;10.50;99.90;;;;;;5054323;28;20868;-75
2022/11/15 09:18:34;;;;;;;35.57;21.87;;;10.60;99.90;;;;;;5038021;28;20611;-73
2022/11/15 09:21:02;;;;;;;36.80;21.50;;;10.60;99.90;;;;;;5025211;28;20051;-74
2022/11/15 09:23:28;;;;;;;34.77;22.00;;;10.60;99.90;;;;;;5017834;28;20048;-75
2022/11/15 09:26:03;;;;;;;37.50;22.50;;;10.60;99.90;;;;;;5053704;28;21034;-74
2022/11/15 09:28:29;;;;;;;37.13;21.55;;;10.60;99.90;;;;;;5044108;28;20294;-74
2022/11/15 09:30:59;;;;;;;34.13;21.33;;;10.60;99.90;;;;;;5020522;28;20431;-74
2022/11/15 09:33:25;;;;;;;37.30;20.90;;;10.60;99.90;;;;;;5042019;28;20843;-75
2022/11/15 09:35:51;;;;;;;32.70;20.67;;;10.50;99.90;;;;;;5030637;28;20279;-75
2022/11/15 09:38:18;;;;;;;40.40;21.87;;;10.50;99.90;;;;;;5060637;28;20677;-75
2022/11/15 09:40:57;;;;;;;35.97;20.90;;;10.40;99.90;;;;;;5057074;28;20041;-76
2022/11/15 09:43:41;;;;;;;32.40;20.60;;;10.40;99.90;;;;;;5048372;28;20345;-75
2022/11/15 09:46:21;;;;;;;36.90;21.80;;;10.40;99.90;;;;;;5040244;28;20274;-74
2022/11/15 09:48:59;;;;;;;37.00;21.27;;;10.40;99.90;;;;;;5039770;28;20378;-75
2022/11/15 09:51:48;;;;;;;35.33;22.20;;;10.50;99.90;;;;;;5058486;28;20344;-75
2022/11/15 09:54:34;;;;;;;39.63;21.40;;;10.60;99.90;;;;;;5049367;28;20352;-74
2022/11/15 09:57:29;;;;;;;37.22;21.95;;;10.60;99.90;;;;;;5037985;28;20643;-74
2022/11/15 10:00:00;;;;;;;33.42;21.27;;;10.70;99.90;;;;;;5052750;28;20165;-74
2022/11/15 10:02:37;;;;;;;35.07;21.20;;;10.80;99.90;;;;;;5036741;28;20123;-74
2022/11/15 10:05:06;;;;;;;32.53;20.87;;;10.90;99.90;;;;;;5035611;28;20279;-74
2022/11/15 10:07:55;;;;;;;33.23;21.70;;;10.90;99.90;;;;;;5044030;28;20294;-74
2022/11/15 10:10:39;;;;;;;34.03;20.23;;;11.00;99.90;;;;;;5059522;28;20306;-74
2022/11/15 10:13:21;;;;;;;36.10;20.73;;;11.00;99.90;;;;;;5043707;28;20542;-74
2022/11/15 10:15:48;;;;;;;30.70;20.57;;;11.10;99.90;;;;;;5059215;28;20642;-74
2022/11/15 10:18:18;;;;;;;28.43;19.77;;;11.10;99.90;;;;;;5046850;28;20609;-74
2022/11/15 10:20:58;;;;;;;32.87;20.47;;;11.20;99.90;;;;;;5055667;28;20754;-73
2022/11/15 10:23:24;;;;;;;32.40;20.10;;;11.30;99.90;;;;;;5037110;28;20286;-75
2022/11/15 10:25:59;;;;;;;29.83;19.27;;;11.30;99.90;;;;;;5043619;28;20279;-74
2022/11/15 10:28:30;;;;;;;30.90;19.17;;;11.40;99.90;;;;;;5046359;28;20292;-74
2022/11/15 10:30:58;;;;;;;31.10;17.93;;;11.40;99.90;;;;;;5056537;28;20059;-74
2022/11/15 10:33:33;;;;;;;31.47;18.60;;;11.50;99.90;;;;;;5044172;28;20271;-74
2022/11/15 10:36:08;;;;;;;;;;;11.50;99.90;;;;;;5040443;28;20287;-74
2022/11/15 10:38:51;;;;;;;27.07;16.77;;;11.50;99.90;;;;;;5057113;28;19916;-74
2022/11/15 10:41:41;;;;;;;27.53;16.63;;;11.50;99.90;;;;;;5057689;28;20287;-74
2022/11/15 10:44:07;;;;;;;27.83;17.50;;;11.60;99.90;;;;;;5038014;28;20370;-74
2022/11/15 10:46:34;;;;;;;29.00;16.87;;;11.60;99.90;;;;;;5028843;28;20425;-74
2022/11/15 10:49:21;;;;;;;24.90;16.43;;;11.60;99.90;;;;;;5039385;28;20076;-74
2022/11/15 10:51:50;;;;;;;25.13;16.30;;;11.70;99.90;;;;;;5035745;28;20295;-74
2022/11/15 10:54:44;;;;;;;26.33;15.90;;;11.70;99.90;;;;;;5061231;28;20290;-74
2022/11/15 10:57:28;;;;;;;23.47;15.47;;;11.80;99.90;;;;;;5076823;28;20275;-74
2022/11/15 11:00:20;;;;;;;26.27;15.30;;;11.80;99.90;;;;;;5081368;28;20681;-74
2022/11/15 11:02:56;;;;;;;23.33;15.10;;;11.90;99.90;;;;;;5042092;28;20831;-74
2022/11/15 11:05:37;;;;;;;24.67;14.83;;;11.90;99.90;;;;;;5058486;28;20790;-74
2022/11/15 11:08:15;;;;;;;24.27;14.97;;;12.00;99.90;;;;;;5054969;28;20362;-74
2022/11/15 11:10:55;;;;;;;19.97;14.10;;;12.00;99.90;;;;;;5054849;28;20311;-74
2022/11/15 11:13:31;;;;;;;21.43;13.53;;;12.00;99.90;;;;;;5051042;28;20286;-74
2022/11/15 11:16:17;;;;;;;21.73;14.20;;;12.00;99.90;;;;;;5065942;28;20283;-74
2022/11/15 11:18:55;;;;;;;21.87;13.53;;;12.00;99.90;;;;;;5049646;28;20289;-74
2022/11/15 11:22:09;;;;;;;25.33;14.10;;;11.90;99.90;;;;;;5041316;28;20283;-74
2022/11/15 11:24:54;;;;;;;18.27;12.33;;;11.90;99.90;;;;;;5022559;28;20335;-76
2022/11/15 11:27:29;;;;;;;21.60;12.63;;;11.90;99.90;;;;;;5056609;28;20296;-73
2022/11/15 11:30:03;;;;;;;18.77;12.20;;;11.90;99.90;;;;;;5066602;28;20177;-74
2022/11/15 11:32:50;;;;;;;20.10;11.90;;;11.80;99.90;;;;;;5051380;28;20145;-74
2022/11/15 11:35:18;;;;;;;20.60;12.90;;;11.80;99.90;;;;;;5053928;28;20123;-74
2022/11/15 11:38:04;;;;;;;19.50;12.37;;;11.80;99.90;;;;;;5041662;28;20654;-74
2022/11/15 11:41:05;;;;;;;18.87;11.33;;;11.90;99.90;;;;;;5054771;28;20313;-75
2022/11/15 11:43:40;;;;;;;21.50;11.77;;;11.90;99.90;;;;;;5002308;28;20299;-75
2022/11/15 11:46:21;;;;;;;17.10;11.25;;;11.90;99.90;;;;;;5060883;28;20290;-76
2022/11/15 11:48:51;;;;;;;16.73;11.70;;;11.90;99.90;;;;;;5060990;28;20047;-74
2022/11/15 11:51:20;;;;;;;15.80;11.00;;;12.00;99.90;;;;;;5035473;28;20304;-74
2022/11/15 11:53:59;;;;;;;21.23;12.83;;;12.10;99.90;;;;;;5054738;28;20353;-74
2022/11/15 11:56:33;;;;;;;15.70;10.33;;;12.30;99.90;;;;;;5049105;28;20617;-74
2022/11/15 11:59:19;;;;;;;16.47;10.57;;;12.40;99.90;;;;;;5052103;28;20300;-74
2022/11/15 12:01:44;;;;;;;;;;;12.50;99.90;;;;;;5052733;28;20282;-74
2022/11/15 12:04:35;;;;;;;13.83;10.40;;;12.50;99.90;;;;;;5064298;28;19927;-74
2022/11/15 12:07:21;;;;;;;11.63;9.77;;;12.60;99.90;;;;;;5052780;28;20044;-74
2022/11/15 12:09:56;;;;;;;15.43;9.80;;;12.60;99.90;;;;;;5058971;28;20379;-74
2022/11/15 12:12:30;;;;;;;15.10;9.23;;;12.60;99.90;;;;;;5037689;28;20356;-74
2022/11/15 12:15:09;;;;;;;17.00;9.40;;;12.50;99.90;;;;;;5049508;28;20547;-74
2022/11/15 12:17:37;;;;;;;13.70;8.83;;;12.50;99.90;;;;;;5062993;28;20534;-75
2022/11/15 12:20:13;;;;;;;13.23;7.97;;;12.50;99.90;;;;;;5058125;28;20356;-74
2022/11/15 12:22:43;;;;;;;17.23;7.70;;;12.50;99.90;;;;;;5055630;28;20283;-75
2022/11/15 12:25:45;;;;;;;10.97;6.80;;;12.60;99.90;;;;;;5055671;28;20283;-74
2022/11/15 12:28:39;;;;;;;8.80;5.73;;;12.80;99.90;;;;;;5049516;28;20699;-74
2022/11/15 12:31:16;;;;;;;9.17;5.47;;;12.80;99.90;;;;;;5048302;28;20303;-74
2022/11/15 12:33:45;;;;;;;9.70;5.30;;;12.90;99.90;;;;;;5051598;28;20286;-74
2022/11/15 12:36:21;;;;;;;7.57;5.20;;;12.80;99.90;;;;;;5040897;28;20302;-74
2022/11/15 12:39:08;;;;;;;8.50;5.20;;;12.80;99.90;;;;;;5052372;28;20631;-74
2022/11/15 12:41:40;;;;;;;11.40;5.10;;;12.70;99.90;;;;;;5044859;28;20279;-75
2022/11/15 12:44:32;;;;;;;11.47;4.07;;;12.80;99.90;;;;;;5041459;28;20296;-75
2022/11/15 12:47:00;;;;;;;5.93;3.80;;;12.80;99.90;;;;;;5049492;28;20305;-74
2022/11/15 12:49:26;;;;;;;7.37;4.13;;;12.80;99.90;;;;;;5042836;28;20444;-75
2022/11/15 12:52:10;;;;;;;7.63;3.90;;;12.70;99.90;;;;;;5037884;28;20385;-75
2022/11/15 12:54:35;;;;;;;9.63;3.43;;;12.60;99.90;;;;;;5054689;28;20052;-75
2022/11/15 12:57:07;;;;;;;5.20;3.00;;;12.60;99.90;;;;;;5047108;28;20285;-75
2022/11/15 12:59:52;;;;;;;6.53;3.07;;;12.60;99.90;;;;;;5049016;28;20492;-75
2022/11/15 13:02:18;;;;;;;;;;;12.50;99.90;;;;;;5064639;28;20279;-74
2022/11/15 13:04:44;;;;;;;5.30;3.07;;;12.40;99.90;;;;;;5054376;28;20305;-75
2022/11/15 13:07:33;;;;;;;7.77;2.80;;;12.30;99.90;;;;;;5033662;28;20116;-75
2022/11/15 13:09:59;;;;;;;4.20;2.70;;;12.20;99.90;;;;;;5058584;28;20075;-75
2022/11/15 13:12:27;;;;;;;5.30;3.10;;;12.10;99.90;;;;;;5033583;28;20335;-74